createdAt,value
2019-06-10T00:00:42.253Z,15.40
2019-06-10T00:03:11.479Z,15.40
2019-06-10T00:05:41.565Z,15.40
2019-06-10T00:08:11.950Z,15.40
2019-06-10T00:10:42.121Z,15.50
2019-06-10T00:13:12.165Z,15.70
2019-06-10T00:15:41.094Z,15.60
2019-06-10T00:18:32.862Z,15.60
2019-06-10T00:20:40.936Z,15.50
2019-06-10T00:23:12.177Z,15.30
2019-06-10T00:25:41.297Z,15.50
2019-06-10T00:28:12.295Z,15.40
2019-06-10T00:30:43.455Z,15.50
2019-06-10T00:33:12.599Z,15.40
2019-06-10T00:35:41.503Z,15.50
2019-06-10T00:38:13.958Z,15.60
2019-06-10T00:40:41.471Z,15.60
2019-06-10T00:43:13.205Z,15.50
2019-06-10T00:45:41.021Z,15.50
2019-06-10T00:48:20.200Z,15.50
2019-06-10T00:50:41.575Z,15.40
2019-06-10T00:53:13.896Z,15.30
2019-06-10T00:55:41.474Z,15.20
2019-06-10T00:58:13.649Z,15.10
2019-06-10T01:00:41.342Z,15.10
2019-06-10T01:03:13.530Z,15.10
2019-06-10T01:05:42.044Z,15.00
2019-06-10T01:08:15.165Z,15.00
2019-06-10T01:10:44.019Z,15.00
2019-06-10T01:13:15.299Z,15.00
2019-06-10T01:15:41.883Z,15.00
2019-06-10T01:18:30.494Z,15.00
2019-06-10T01:20:41.985Z,15.00
2019-06-10T01:23:13.915Z,14.90
2019-06-10T01:25:42.197Z,14.90
2019-06-10T01:28:14.555Z,14.80
2019-06-10T01:30:43.444Z,14.90
2019-06-10T01:33:14.193Z,14.70
2019-06-10T01:35:41.874Z,14.70
2019-06-10T01:38:12.471Z,14.70
2019-06-10T01:40:41.859Z,14.70
2019-06-10T01:43:12.954Z,14.60
2019-06-10T01:45:41.843Z,14.60
2019-06-10T01:48:14.920Z,14.50
2019-06-10T01:50:41.499Z,14.60
2019-06-10T01:53:13.562Z,14.40
2019-06-10T01:55:41.727Z,14.40
2019-06-10T01:58:12.456Z,14.40
2019-06-10T02:00:56.546Z,14.50
2019-06-10T02:03:24.773Z,14.40
2019-06-10T02:05:52.941Z,14.20
2019-06-10T02:08:22.372Z,14.50
2019-06-10T02:10:50.968Z,14.60
2019-06-10T02:13:32.662Z,14.60
2019-06-10T02:16:01.090Z,14.70
2019-06-10T02:18:31.660Z,14.80
2019-06-10T02:21:00.917Z,14.90
2019-06-10T02:23:31.359Z,14.90
2019-06-10T02:26:02.162Z,15.00
2019-06-10T02:28:31.793Z,15.00
2019-06-10T02:31:03.472Z,15.00
2019-06-10T02:33:35.723Z,15.10
2019-06-10T02:36:03.419Z,15.20
2019-06-10T02:38:35.503Z,15.30
2019-06-10T02:41:04.440Z,15.50
2019-06-10T02:43:33.282Z,15.70
2019-06-10T02:46:04.226Z,15.90
2019-06-10T02:48:34.840Z,16.00
2019-06-10T02:51:04.720Z,15.80
2019-06-10T02:53:36.003Z,15.90
2019-06-10T02:56:06.784Z,16.00
2019-06-10T02:58:38.819Z,16.10
2019-06-10T03:01:05.872Z,16.00
2019-06-10T03:03:42.654Z,15.90
2019-06-10T03:06:06.618Z,15.80
2019-06-10T03:08:36.038Z,16.00
2019-06-10T03:11:04.776Z,16.10
2019-06-10T03:13:33.244Z,16.10
2019-06-10T03:16:25.574Z,16.10
2019-06-10T03:18:52.766Z,16.20
2019-06-10T03:21:24.239Z,16.30
2019-06-10T03:23:52.990Z,16.20
2019-06-10T03:26:23.979Z,16.20
2019-06-10T03:28:52.019Z,16.20
2019-06-10T03:31:22.073Z,16.30
2019-06-10T03:33:54.112Z,16.40
2019-06-10T03:36:22.706Z,16.40
2019-06-10T03:38:53.502Z,16.50
2019-06-10T03:41:23.287Z,16.60
2019-06-10T03:43:53.117Z,16.60
2019-06-10T03:46:23.802Z,16.70
2019-06-10T03:48:52.616Z,16.80
2019-06-10T03:51:21.859Z,17.00
2019-06-10T03:53:53.071Z,17.10
2019-06-10T03:56:23.858Z,17.20
2019-06-10T03:58:53.399Z,17.10
2019-06-10T04:01:25.034Z,17.10
2019-06-10T04:03:53.242Z,17.00
2019-06-10T04:06:24.209Z,16.90
2019-06-10T04:08:52.865Z,17.00
2019-06-10T04:11:24.007Z,16.90
2019-06-10T04:13:53.355Z,16.90
2019-06-10T04:16:22.684Z,16.90
2019-06-10T04:18:53.421Z,16.90
2019-06-10T04:21:25.435Z,16.90
2019-06-10T04:23:53.699Z,17.10
2019-06-10T04:26:24.703Z,17.20
2019-06-10T04:28:52.988Z,17.20
2019-06-10T04:31:23.766Z,17.40
2019-06-10T04:33:52.332Z,17.40
2019-06-10T04:36:23.460Z,17.40
2019-06-10T04:38:52.466Z,17.60
2019-06-10T04:41:23.012Z,17.70
2019-06-10T04:43:53.014Z,17.80
2019-06-10T04:46:24.557Z,17.80
2019-06-10T04:48:53.266Z,17.90
2019-06-10T04:51:23.524Z,17.90
2019-06-10T04:53:52.555Z,18.00
2019-06-10T04:56:24.102Z,18.00
2019-06-10T04:58:52.612Z,18.10
2019-06-10T05:01:25.251Z,18.20
2019-06-10T05:03:53.192Z,18.30
2019-06-10T05:06:26.705Z,18.50
2019-06-10T05:08:54.499Z,18.50
2019-06-10T05:11:24.269Z,18.30
2019-06-10T05:13:53.408Z,18.60
2019-06-10T05:16:25.584Z,18.60
2019-06-10T05:18:54.595Z,18.60
2019-06-10T05:21:24.533Z,18.80
2019-06-10T05:23:52.249Z,18.80
2019-06-10T05:26:25.090Z,19.00
2019-06-10T05:28:52.619Z,19.40
2019-06-10T05:31:23.239Z,19.70
2019-06-10T05:33:53.084Z,20.00
2019-06-10T05:36:25.451Z,20.10
2019-06-10T05:38:52.536Z,20.10
2019-06-10T05:41:24.186Z,20.20
2019-06-10T05:43:52.357Z,20.10
2019-06-10T05:46:23.643Z,19.90
2019-06-10T05:48:52.641Z,19.80
2019-06-10T05:51:25.829Z,19.80
2019-06-10T05:53:54.734Z,19.90
2019-06-10T05:56:23.868Z,20.00
2019-06-10T05:58:53.173Z,19.90
2019-06-10T06:01:22.945Z,20.40
2019-06-10T06:03:54.106Z,20.50
2019-06-10T06:06:32.352Z,20.90
2019-06-10T06:09:04.862Z,20.90
2019-06-10T06:11:48.872Z,20.90
2019-06-10T06:14:19.196Z,21.00
2019-06-10T06:16:48.866Z,21.20
2019-06-10T06:19:39.137Z,21.40
2019-06-10T06:22:27.397Z,21.80
2019-06-10T06:24:59.612Z,22.20
2019-06-10T06:27:30.764Z,22.40
2019-06-10T06:30:10.838Z,22.50
2019-06-10T06:32:43.635Z,22.50
2019-06-10T06:35:22.722Z,22.50
2019-06-10T06:37:54.285Z,22.60
2019-06-10T06:40:23.429Z,22.70
2019-06-10T06:42:52.583Z,22.70
2019-06-10T06:45:22.958Z,22.60
2019-06-10T06:47:56.997Z,22.60
2019-06-10T06:50:54.646Z,22.70
2019-06-10T06:53:27.829Z,23.10
2019-06-10T06:55:46.139Z,23.30
2019-06-10T06:58:23.202Z,23.30
2019-06-10T07:01:05.144Z,23.20
2019-06-10T07:03:32.211Z,23.50
2019-06-10T07:06:04.701Z,23.70
2019-06-10T07:08:38.117Z,23.90
2019-06-10T07:11:15.352Z,24.10
2019-06-10T07:14:10.086Z,24.20
2019-06-10T07:17:07.275Z,24.60
2019-06-10T07:19:39.184Z,24.80
2019-06-10T07:22:16.133Z,24.80
2019-06-10T07:24:47.509Z,24.90
2019-06-10T07:27:22.656Z,24.80
2019-06-10T07:30:11.477Z,25.00
2019-06-10T07:32:37.338Z,25.10
2019-06-10T07:35:06.913Z,25.30
2019-06-10T07:37:36.611Z,25.00
2019-06-10T07:40:07.806Z,25.10
2019-06-10T07:42:39.000Z,25.00
2019-06-10T07:45:09.239Z,25.20
2019-06-10T07:47:46.200Z,25.10
2019-06-10T07:50:22.686Z,25.20
2019-06-10T07:52:52.893Z,25.40
2019-06-10T07:55:33.247Z,25.80
2019-06-10T07:58:04.939Z,25.60
2019-06-10T08:00:38.918Z,25.80
2019-06-10T08:03:13.212Z,26.00
2019-06-10T08:05:46.475Z,26.10
2019-06-10T08:08:15.770Z,26.00
2019-06-10T08:10:52.940Z,26.00
2019-06-10T08:13:23.897Z,26.00
2019-06-10T08:15:53.340Z,25.90
2019-06-10T08:18:25.840Z,26.00
2019-06-10T08:20:54.863Z,25.90
2019-06-10T08:23:25.367Z,26.10
2019-06-10T08:25:57.829Z,26.20
2019-06-10T08:28:33.320Z,26.20
2019-06-10T08:31:05.132Z,26.20
2019-06-10T08:33:39.005Z,26.30
2019-06-10T08:36:13.818Z,26.40
2019-06-10T08:38:49.598Z,26.20
2019-06-10T08:41:23.196Z,26.20
2019-06-10T08:43:52.897Z,26.20
2019-06-10T08:46:27.883Z,26.30
2019-06-10T08:48:57.920Z,26.50
2019-06-10T08:51:32.621Z,26.60
2019-06-10T08:54:17.199Z,26.80
2019-06-10T08:56:57.793Z,27.00
2019-06-10T08:59:32.593Z,26.90
2019-06-10T09:02:02.984Z,27.00
2019-06-10T09:04:33.073Z,26.70
2019-06-10T09:07:05.003Z,26.70
2019-06-10T09:09:33.694Z,26.70
2019-06-10T09:12:03.625Z,26.70
2019-06-10T09:14:32.728Z,26.70
2019-06-10T09:17:03.399Z,26.80
2019-06-10T09:19:34.558Z,27.00
2019-06-10T09:22:06.071Z,27.40
2019-06-10T09:24:34.634Z,27.60
2019-06-10T09:27:03.114Z,27.50
2019-06-10T09:29:34.856Z,27.50
2019-06-10T09:32:03.249Z,27.70
2019-06-10T09:34:33.101Z,27.40
2019-06-10T09:37:03.536Z,27.60
2019-06-10T09:39:34.239Z,27.50
2019-06-10T09:42:06.199Z,27.60
2019-06-10T09:44:33.412Z,27.60
2019-06-10T09:47:03.934Z,27.60
2019-06-10T09:49:33.563Z,27.80
2019-06-10T09:52:03.296Z,27.60
2019-06-10T09:54:33.553Z,27.20
2019-06-10T09:57:02.604Z,27.00
2019-06-10T09:59:32.353Z,27.00
2019-06-10T10:02:03.720Z,26.80
2019-06-10T10:04:37.492Z,26.90
2019-06-10T10:07:07.838Z,26.90
2019-06-10T10:09:37.204Z,26.80
2019-06-10T10:12:06.048Z,26.80
2019-06-10T10:14:34.842Z,26.80
2019-06-10T10:17:04.787Z,26.90
2019-06-10T10:19:36.074Z,26.80
2019-06-10T10:22:05.879Z,26.60
2019-06-10T10:24:35.981Z,26.60
2019-06-10T10:27:08.469Z,26.60
2019-06-10T10:29:36.821Z,26.70
2019-06-10T10:32:09.890Z,27.10
2019-06-10T10:34:38.420Z,27.40
2019-06-10T10:37:06.918Z,27.10
2019-06-10T10:39:35.780Z,27.20
2019-06-10T10:42:06.696Z,27.30
2019-06-10T10:44:37.010Z,27.30
2019-06-10T10:47:05.406Z,27.30
2019-06-10T10:49:33.903Z,27.40
2019-06-10T10:52:02.744Z,27.40
2019-06-10T10:54:36.894Z,27.30
2019-06-10T10:57:05.459Z,27.40
2019-06-10T10:59:34.245Z,27.40
2019-06-10T11:02:02.700Z,27.80
2019-06-10T11:04:33.016Z,28.10
2019-06-10T11:07:03.664Z,28.20
2019-06-10T11:09:38.649Z,28.40
2019-06-10T11:12:07.562Z,28.80
2019-06-10T11:14:36.987Z,28.80
2019-06-10T11:17:05.518Z,28.80
2019-06-10T11:19:36.662Z,28.80
2019-06-10T11:22:05.830Z,28.70
2019-06-10T11:24:41.056Z,28.70
2019-06-10T11:27:12.129Z,28.70
2019-06-10T11:29:42.108Z,28.70
2019-06-10T11:32:09.783Z,28.70
2019-06-10T11:34:37.974Z,28.70
2019-06-10T11:37:06.080Z,28.70
2019-06-10T11:39:38.434Z,28.60
2019-06-10T11:42:04.269Z,28.70
2019-06-10T11:44:33.393Z,28.60
2019-06-10T11:47:03.227Z,28.40
2019-06-10T11:49:32.347Z,28.40
2019-06-10T11:52:03.066Z,28.60
2019-06-10T11:54:34.067Z,28.80
2019-06-10T11:57:02.174Z,29.10
2019-06-10T11:59:32.732Z,29.20
2019-06-10T12:02:06.017Z,29.20
2019-06-10T12:04:39.050Z,29.00
2019-06-10T12:07:12.702Z,28.90
2019-06-10T12:09:43.348Z,29.00
2019-06-10T12:12:25.017Z,29.20
2019-06-10T12:14:57.774Z,29.20
2019-06-10T12:17:41.545Z,29.00
2019-06-10T12:20:03.014Z,28.90
2019-06-10T12:22:32.970Z,28.90
2019-06-10T12:25:26.376Z,29.00
2019-06-10T12:27:32.840Z,29.20
2019-06-10T12:30:04.823Z,29.40
2019-06-10T12:32:34.341Z,29.40
2019-06-10T12:35:05.697Z,29.50
2019-06-10T12:37:37.214Z,29.80
2019-06-10T12:40:06.187Z,29.80
2019-06-10T12:42:34.808Z,29.80
2019-06-10T12:45:08.302Z,29.90
2019-06-10T12:47:35.542Z,29.90
2019-06-10T12:50:05.587Z,30.20
2019-06-10T12:52:35.465Z,30.10
2019-06-10T12:55:09.909Z,30.30
2019-06-10T12:57:38.453Z,30.30
2019-06-10T13:00:19.202Z,30.20
2019-06-10T13:02:39.696Z,30.10
2019-06-10T13:05:08.982Z,30.00
2019-06-10T13:07:38.029Z,29.80
2019-06-10T13:10:07.964Z,29.80
2019-06-10T13:12:42.765Z,30.00
2019-06-10T13:15:11.064Z,30.10
2019-06-10T13:17:39.781Z,30.20
2019-06-10T13:20:08.403Z,30.20
2019-06-10T13:22:36.959Z,30.20
2019-06-10T13:25:06.643Z,30.80
2019-06-10T13:27:35.685Z,30.80
2019-06-10T13:30:09.438Z,30.90
2019-06-10T13:32:37.945Z,30.90
2019-06-10T13:35:07.708Z,31.00
2019-06-10T13:37:37.435Z,31.00
2019-06-10T13:40:09.984Z,30.80
2019-06-10T13:42:37.980Z,30.80
2019-06-10T13:45:08.570Z,31.00
2019-06-10T13:47:42.856Z,31.30
2019-06-10T13:50:11.948Z,31.70
2019-06-10T13:52:42.641Z,31.80
2019-06-10T13:55:13.639Z,32.10
2019-06-10T13:57:42.639Z,32.40
2019-06-10T14:00:15.547Z,32.50
2019-06-10T14:02:44.066Z,32.50
2019-06-10T14:05:18.204Z,33.30
2019-06-10T14:07:44.652Z,33.40
2019-06-10T14:10:17.988Z,33.50
2019-06-10T14:12:48.793Z,32.90
2019-06-10T14:15:17.071Z,32.40
2019-06-10T14:17:45.960Z,32.40
2019-06-10T14:20:15.494Z,32.50
2019-06-10T14:22:52.961Z,32.50
2019-06-10T14:25:23.246Z,32.80
2019-06-10T14:27:53.227Z,32.90
2019-06-10T14:30:23.059Z,33.40
2019-06-10T14:32:53.261Z,33.30
2019-06-10T14:35:22.758Z,33.10
2019-06-10T14:37:53.432Z,33.60
2019-06-10T14:40:25.280Z,34.00
2019-06-10T14:42:56.321Z,34.10
2019-06-10T14:45:24.638Z,33.80
2019-06-10T14:47:54.416Z,33.70
2019-06-10T14:50:23.199Z,34.10
2019-06-10T14:52:51.934Z,33.90
2019-06-10T14:55:23.081Z,34.00
2019-06-10T14:57:53.113Z,34.50
2019-06-10T15:00:23.596Z,34.60
2019-06-10T15:02:53.862Z,34.90
2019-06-10T15:05:23.256Z,34.40
2019-06-10T15:07:52.840Z,34.30
2019-06-10T15:10:23.325Z,33.90
2019-06-10T15:12:52.859Z,33.90
2019-06-10T15:15:23.613Z,33.50
2019-06-10T15:17:52.624Z,33.50
2019-06-10T15:20:22.829Z,33.70
2019-06-10T15:22:52.642Z,33.70
2019-06-10T15:25:25.442Z,33.50
2019-06-10T15:27:52.661Z,33.20
2019-06-10T15:30:26.554Z,33.30
2019-06-10T15:32:52.445Z,33.20
2019-06-10T15:35:24.588Z,33.00
2019-06-10T15:37:55.435Z,32.60
2019-06-10T15:40:23.823Z,32.70
2019-06-10T15:42:53.254Z,32.70
2019-06-10T15:45:22.368Z,32.60
2019-06-10T15:47:52.982Z,32.90
2019-06-10T15:50:23.323Z,32.80
2019-06-10T15:52:52.439Z,33.00
2019-06-10T15:55:42.668Z,32.70
2019-06-10T15:57:51.061Z,32.70
2019-06-10T16:00:28.821Z,32.80
2019-06-10T16:02:53.431Z,32.50
2019-06-10T16:05:25.162Z,31.90
2019-06-10T16:07:52.991Z,31.50
2019-06-10T16:10:27.598Z,30.80
2019-06-10T16:12:53.444Z,30.40
2019-06-10T16:15:24.773Z,30.00
2019-06-10T16:17:53.581Z,29.90
2019-06-10T16:20:21.935Z,29.80
2019-06-10T16:22:52.156Z,29.70
2019-06-10T16:25:23.493Z,29.70
2019-06-10T16:27:54.273Z,29.60
2019-06-10T16:30:23.229Z,29.40
2019-06-10T16:32:52.978Z,29.50
2019-06-10T16:35:23.492Z,29.40
2019-06-10T16:37:56.680Z,29.30
2019-06-10T16:40:25.856Z,29.20
2019-06-10T16:42:55.244Z,29.10
2019-06-10T16:45:30.246Z,29.20
2019-06-10T16:47:57.152Z,29.10
2019-06-10T16:50:27.373Z,29.10
2019-06-10T16:52:55.778Z,29.10
2019-06-10T16:55:25.807Z,29.00
2019-06-10T16:57:59.210Z,28.90
2019-06-10T17:00:26.048Z,28.80
2019-06-10T17:02:55.280Z,28.80
2019-06-10T17:05:26.655Z,28.80
2019-06-10T17:07:53.787Z,28.70
2019-06-10T17:10:22.416Z,28.60
2019-06-10T17:13:03.106Z,28.50
2019-06-10T17:15:32.030Z,28.30
2019-06-10T17:18:02.673Z,28.40
2019-06-10T17:20:34.130Z,28.30
2019-06-10T17:23:21.722Z,28.20
2019-06-10T17:25:53.421Z,28.10
2019-06-10T17:28:27.098Z,28.10
2019-06-10T17:30:53.977Z,28.10
2019-06-10T17:33:22.954Z,28.00
2019-06-10T17:35:52.614Z,28.00
2019-06-10T17:38:22.517Z,27.90
2019-06-10T17:40:52.161Z,28.00
2019-06-10T17:43:20.956Z,27.80
2019-06-10T17:45:49.492Z,27.80
2019-06-10T17:48:17.775Z,27.80
2019-06-10T17:50:46.214Z,27.70
2019-06-10T17:53:14.546Z,27.60
2019-06-10T17:55:42.860Z,27.60
2019-06-10T17:58:13.088Z,27.60
2019-06-10T18:00:42.248Z,27.50
2019-06-10T18:03:13.015Z,27.50
2019-06-10T18:05:42.520Z,27.30
2019-06-10T18:08:13.105Z,27.40
2019-06-10T18:10:43.467Z,27.40
2019-06-10T18:13:16.222Z,27.40
2019-06-10T18:15:42.338Z,27.30
2019-06-10T18:18:12.848Z,27.30
2019-06-10T18:20:43.267Z,27.30
2019-06-10T18:23:13.270Z,27.20
2019-06-10T18:25:43.302Z,27.20
2019-06-10T18:28:12.072Z,27.20
2019-06-10T18:30:40.263Z,27.10
2019-06-10T18:33:08.859Z,27.10
2019-06-10T18:35:37.655Z,27.00
2019-06-10T18:38:06.235Z,27.00
2019-06-10T18:40:35.644Z,26.90
2019-06-10T18:43:04.454Z,26.70
2019-06-10T18:45:36.258Z,26.70
2019-06-10T18:48:02.930Z,26.60
2019-06-10T18:50:33.419Z,26.50
2019-06-10T18:53:04.233Z,26.40
2019-06-10T18:55:35.888Z,26.50
2019-06-10T18:58:02.563Z,26.30
2019-06-10T19:00:51.853Z,26.20
2019-06-10T19:03:10.211Z,26.10
2019-06-10T19:05:33.583Z,26.10
2019-06-10T19:08:02.614Z,26.00
2019-06-10T19:10:33.492Z,25.90
2019-06-10T19:13:02.500Z,26.00
2019-06-10T19:15:31.838Z,25.80
2019-06-10T19:18:02.955Z,25.80
2019-06-10T19:20:34.593Z,25.70
2019-06-10T19:23:02.497Z,25.70
2019-06-10T19:26:13.397Z,25.70
2019-06-10T19:29:00.166Z,25.60
2019-06-10T19:31:28.756Z,25.60
2019-06-10T19:33:57.178Z,25.50
2019-06-10T19:36:26.561Z,25.50
2019-06-10T19:38:55.613Z,25.40
2019-06-10T19:41:24.124Z,25.40
2019-06-10T19:43:55.124Z,25.30
2019-06-10T19:46:23.519Z,25.20
2019-06-10T19:48:59.440Z,25.20
2019-06-10T19:51:22.849Z,25.10
2019-06-10T19:53:52.732Z,25.00
2019-06-10T19:56:23.247Z,24.90
2019-06-10T19:58:52.978Z,24.90
2019-06-10T20:01:22.559Z,24.90
2019-06-10T20:03:52.080Z,25.20
2019-06-10T20:06:22.201Z,24.90
2019-06-10T20:08:52.208Z,24.80
2019-06-10T20:11:22.733Z,24.80
2019-06-10T20:13:52.944Z,24.80
2019-06-10T20:16:20.480Z,24.80
2019-06-10T20:18:49.837Z,24.70
2019-06-10T20:21:18.038Z,24.70
2019-06-10T20:23:47.736Z,24.70
2019-06-10T20:26:16.271Z,24.70
2019-06-10T20:28:46.402Z,24.70
2019-06-10T20:31:14.473Z,24.50
2019-06-10T20:33:43.228Z,24.50
2019-06-10T20:36:21.074Z,24.50
2019-06-10T20:38:46.398Z,24.40
2019-06-10T20:41:13.664Z,24.50
2019-06-10T20:43:44.281Z,24.40
2019-06-10T20:46:12.973Z,24.30
2019-06-10T20:48:45.368Z,24.40
2019-06-10T20:51:12.871Z,24.40
2019-06-10T20:53:43.223Z,24.30
2019-06-10T20:56:12.444Z,24.30
2019-06-10T20:58:41.410Z,24.30
2019-06-10T21:01:10.759Z,24.10
2019-06-10T21:03:39.130Z,24.30
2019-06-10T21:06:09.566Z,24.20
2019-06-10T21:08:37.907Z,24.20
2019-06-10T21:11:06.732Z,24.10
2019-06-10T21:13:35.999Z,24.10
2019-06-10T21:16:04.591Z,24.00
2019-06-10T21:18:33.188Z,24.00
2019-06-10T21:21:03.010Z,23.90
2019-06-10T21:23:31.584Z,23.90
2019-06-10T21:26:03.187Z,23.90
2019-06-10T21:28:33.322Z,23.80
2019-06-10T21:31:02.812Z,23.70
2019-06-10T21:33:33.290Z,23.80
2019-06-10T21:36:03.922Z,23.70
2019-06-10T21:38:32.330Z,23.60
2019-06-10T21:41:03.041Z,23.60
2019-06-10T21:43:33.088Z,23.60
2019-06-10T21:46:03.329Z,23.60
2019-06-10T21:48:32.381Z,23.60
2019-06-10T21:51:00.824Z,23.50
2019-06-10T21:53:29.600Z,23.50
2019-06-10T21:55:58.098Z,23.50
2019-06-10T21:58:26.437Z,23.40
2019-06-10T22:01:08.526Z,23.40
2019-06-10T22:03:25.820Z,23.40
2019-06-10T22:05:54.412Z,23.40
2019-06-10T22:08:22.788Z,23.50
2019-06-10T22:10:54.391Z,23.20
2019-06-10T22:13:22.370Z,23.20
2019-06-10T22:15:56.701Z,23.10
2019-06-10T22:18:24.874Z,23.30
2019-06-10T22:20:57.527Z,23.10
2019-06-10T22:23:24.394Z,23.10
2019-06-10T22:25:54.264Z,23.00
2019-06-10T22:28:22.507Z,23.10
2019-06-10T22:30:55.683Z,23.00
2019-06-10T22:33:22.668Z,23.00
2019-06-10T22:35:53.895Z,22.90
2019-06-10T22:38:22.163Z,23.00
2019-06-10T22:40:51.492Z,23.00
2019-06-10T22:43:20.664Z,23.00
2019-06-10T22:45:49.495Z,23.00
2019-06-10T22:48:17.932Z,22.90
2019-06-10T22:50:46.957Z,23.00
2019-06-10T22:53:15.517Z,22.90
2019-06-10T22:55:43.918Z,22.90
2019-06-10T22:58:14.447Z,22.70
2019-06-10T23:00:43.756Z,22.70
2019-06-10T23:03:13.030Z,22.70
2019-06-10T23:05:43.315Z,22.60
2019-06-10T23:08:12.642Z,22.60
2019-06-10T23:10:42.827Z,22.60
2019-06-10T23:13:13.280Z,22.50
2019-06-10T23:15:43.144Z,22.20
2019-06-10T23:18:13.389Z,22.30
2019-06-10T23:20:42.822Z,21.90
2019-06-10T23:23:12.707Z,21.90
2019-06-10T23:25:42.965Z,21.80
2019-06-10T23:28:12.932Z,21.60
2019-06-10T23:30:44.267Z,21.40
2019-06-10T23:33:12.730Z,21.50
2019-06-10T23:35:42.970Z,21.40
2019-06-10T23:38:13.223Z,21.40
2019-06-10T23:40:43.000Z,21.30
2019-06-10T23:43:13.184Z,21.20
2019-06-10T23:45:42.332Z,21.20
2019-06-10T23:48:13.194Z,21.20
2019-06-10T23:50:43.497Z,21.40
2019-06-10T23:53:13.073Z,21.20
2019-06-10T23:55:42.787Z,21.30
2019-06-10T23:58:12.907Z,21.20
